createdAt,value
2018-09-05T00:01:49.067Z,31.33
2018-09-05T00:04:16.407Z,32.13
2018-09-05T00:06:43.768Z,30.93
2018-09-05T00:09:11.124Z,33.17
2018-09-05T00:11:39.143Z,33.50
2018-09-05T00:14:06.794Z,30.57
2018-09-05T00:16:34.147Z,26.60
2018-09-05T00:19:01.537Z,24.60
2018-09-05T00:21:28.891Z,25.23
2018-09-05T00:23:56.451Z,28.77
2018-09-05T00:26:23.791Z,32.63
2018-09-05T00:28:51.146Z,33.07
2018-09-05T00:31:18.505Z,31.83
2018-09-05T00:33:45.872Z,29.23
2018-09-05T00:36:13.212Z,31.00
2018-09-05T00:38:40.562Z,31.37
2018-09-05T00:41:07.916Z,28.20
2018-09-05T00:43:35.268Z,30.03
2018-09-05T00:46:02.654Z,31.33
2018-09-05T00:48:30.060Z,31.13
2018-09-05T00:50:57.423Z,36.87
2018-09-05T00:53:25.167Z,31.93
2018-09-05T00:55:52.591Z,36.10
2018-09-05T00:58:21.006Z,31.83
2018-09-05T01:00:48.416Z,37.73
2018-09-05T01:03:15.759Z,38.77
2018-09-05T01:05:43.252Z,38.20
2018-09-05T01:08:10.639Z,37.63
2018-09-05T01:10:37.987Z,38.83
2018-09-05T01:13:05.892Z,35.40
2018-09-05T01:15:33.246Z,32.77
2018-09-05T01:18:00.595Z,40.97
2018-09-05T01:20:27.940Z,40.30
2018-09-05T01:22:55.353Z,43.90
2018-09-05T01:25:22.767Z,36.07
2018-09-05T01:27:50.158Z,45.03
2018-09-05T01:30:17.492Z,39.07
2018-09-05T01:32:44.847Z,41.57
2018-09-05T01:35:12.227Z,41.57
2018-09-05T01:37:39.561Z,40.10
2018-09-05T01:40:06.916Z,44.27
2018-09-05T01:42:34.278Z,37.40
2018-09-05T01:45:01.608Z,40.40
2018-09-05T01:47:28.956Z,41.60
2018-09-05T01:49:56.351Z,43.93
2018-09-05T01:52:23.708Z,43.47
2018-09-05T01:54:51.052Z,40.07
2018-09-05T01:57:18.411Z,48.30
2018-09-05T01:59:45.764Z,44.03
2018-09-05T02:02:13.359Z,42.20
2018-09-05T02:04:40.696Z,42.97
2018-09-05T02:07:08.029Z,45.73
2018-09-05T02:09:35.363Z,46.30
2018-09-05T02:12:02.723Z,46.97
2018-09-05T02:14:30.076Z,47.77
2018-09-05T02:16:57.426Z,50.40
2018-09-05T02:19:24.781Z,44.43
2018-09-05T02:21:52.123Z,45.17
2018-09-05T02:24:19.463Z,46.90
2018-09-05T02:26:46.811Z,46.33
2018-09-05T02:29:14.171Z,45.17
2018-09-05T02:31:41.524Z,46.40
2018-09-05T02:34:08.871Z,49.07
2018-09-05T02:36:36.219Z,50.47
2018-09-05T02:39:06.319Z,51.57
2018-09-05T02:41:35.056Z,45.93
2018-09-05T02:44:08.169Z,47.30
2018-09-05T02:46:35.512Z,48.17
2018-09-05T02:49:02.898Z,47.03
2018-09-05T02:51:30.256Z,44.80
2018-09-05T02:53:57.644Z,47.80
2018-09-05T02:56:24.973Z,44.33
2018-09-05T02:58:52.334Z,45.67
2018-09-05T03:01:19.696Z,49.33
2018-09-05T03:03:47.080Z,44.83
2018-09-05T03:06:14.429Z,48.50
2018-09-05T03:08:41.788Z,46.47
2018-09-05T03:11:09.116Z,45.43
2018-09-05T03:13:36.472Z,46.17
2018-09-05T03:16:03.820Z,48.57
2018-09-05T03:18:31.179Z,43.50
2018-09-05T03:20:58.532Z,48.67
2018-09-05T03:23:25.903Z,46.27
2018-09-05T03:25:53.392Z,47.00
2018-09-05T03:28:20.767Z,46.13
2018-09-05T03:30:48.119Z,48.70
2018-09-05T03:33:15.485Z,46.83
2018-09-05T03:35:42.823Z,46.30
2018-09-05T03:38:10.167Z,44.60
2018-09-05T03:40:37.596Z,49.00
2018-09-05T03:43:04.955Z,52.30
2018-09-05T03:45:33.659Z,43.00
2018-09-05T03:48:01.015Z,44.67
2018-09-05T03:50:28.376Z,49.00
2018-09-05T03:52:55.738Z,47.70
2018-09-05T03:55:23.113Z,48.03
2018-09-05T03:57:50.467Z,48.07
2018-09-05T04:00:17.811Z,51.57
2018-09-05T04:02:45.329Z,46.87
2018-09-05T04:05:12.734Z,48.13
2018-09-05T04:07:40.108Z,50.00
2018-09-05T04:10:07.461Z,49.23
2018-09-05T04:12:39.721Z,49.63
2018-09-05T04:15:07.427Z,47.20
2018-09-05T04:17:35.136Z,50.00
2018-09-05T04:20:02.539Z,46.83
2018-09-05T04:22:29.904Z,49.10
2018-09-05T04:24:57.267Z,49.97
2018-09-05T04:27:24.603Z,44.50
2018-09-05T04:29:52.036Z,50.13
2018-09-05T04:32:20.514Z,47.87
2018-09-05T04:34:47.873Z,46.37
2018-09-05T04:37:15.236Z,48.87
2018-09-05T04:39:42.588Z,47.07
2018-09-05T04:42:10.003Z,49.83
2018-09-05T04:44:37.367Z,48.00
2018-09-05T04:47:04.827Z,49.07
2018-09-05T04:49:32.335Z,53.33
2018-09-05T04:51:59.678Z,51.67
2018-09-05T04:54:27.100Z,49.10
2018-09-05T04:56:54.449Z,50.03
2018-09-05T04:59:21.787Z,46.70
2018-09-05T05:01:49.188Z,46.40
2018-09-05T05:04:16.539Z,47.40
2018-09-05T05:06:43.881Z,50.77
2018-09-05T05:09:11.823Z,49.57
2018-09-05T05:11:39.944Z,50.27
2018-09-05T05:14:07.311Z,48.13
2018-09-05T05:16:34.695Z,44.33
2018-09-05T05:19:02.052Z,44.93
2018-09-05T05:21:29.427Z,43.40
2018-09-05T05:23:56.763Z,45.70
2018-09-05T05:26:24.114Z,46.40
2018-09-05T05:28:51.508Z,43.37
2018-09-05T05:31:18.827Z,37.43
2018-09-05T05:33:46.268Z,37.57
2018-09-05T05:36:14.416Z,37.17
2018-09-05T05:38:41.779Z,36.07
2018-09-05T05:41:09.148Z,33.03
2018-09-05T05:43:36.487Z,32.83
2018-09-05T05:46:03.833Z,33.47
2018-09-05T05:48:31.224Z,33.73
2018-09-05T05:50:58.593Z,29.70
2018-09-05T05:53:25.927Z,26.00
2018-09-05T05:55:53.331Z,26.97
2018-09-05T05:58:20.663Z,24.83
2018-09-05T06:00:48.111Z,25.73
2018-09-05T06:03:15.406Z,29.53
2018-09-05T06:05:42.774Z,37.30
2018-09-05T06:08:10.242Z,33.43
2018-09-05T06:10:37.615Z,35.40
2018-09-05T06:13:04.938Z,29.27
2018-09-05T06:15:32.366Z,30.07
2018-09-05T06:17:59.774Z,22.93
2018-09-05T06:20:27.037Z,24.97
2018-09-05T06:22:54.395Z,26.93
2018-09-05T06:25:21.744Z,26.27
2018-09-05T06:27:49.167Z,22.27
2018-09-05T06:30:16.516Z,22.33
2018-09-05T06:32:43.811Z,21.30
2018-09-05T06:35:11.188Z,24.77
2018-09-05T06:37:38.529Z,21.37
2018-09-05T06:40:05.975Z,23.37
2018-09-05T06:42:33.364Z,23.83
2018-09-05T06:45:00.801Z,24.10
2018-09-05T06:47:28.091Z,22.73
2018-09-05T06:49:55.459Z,24.07
2018-09-05T06:52:22.820Z,25.50
2018-09-05T06:54:50.171Z,19.47
2018-09-05T06:57:17.543Z,21.90
2018-09-05T06:59:45.244Z,23.70
2018-09-05T07:02:12.584Z,19.87
2018-09-05T07:04:39.908Z,20.37
2018-09-05T07:07:07.408Z,21.13
2018-09-05T07:09:34.725Z,22.73
2018-09-05T07:12:02.141Z,19.47
2018-09-05T07:14:29.496Z,19.33
2018-09-05T07:16:56.824Z,20.03
2018-09-05T07:19:24.217Z,20.20
2018-09-05T07:21:51.757Z,21.27
2018-09-05T07:24:19.052Z,21.03
2018-09-05T07:26:46.406Z,22.23
2018-09-05T07:29:13.765Z,22.93
2018-09-05T07:31:41.120Z,20.10
2018-09-05T07:34:08.459Z,21.87
2018-09-05T07:36:35.787Z,19.80
2018-09-05T07:39:05.507Z,20.33
2018-09-05T07:41:32.860Z,21.40
2018-09-05T07:44:00.216Z,16.10
2018-09-05T07:46:27.588Z,16.87
2018-09-05T07:48:54.978Z,17.20
2018-09-05T07:51:22.546Z,17.93
2018-09-05T07:53:49.903Z,16.57
2018-09-05T07:56:17.295Z,15.33
2018-09-05T07:58:44.658Z,18.43
2018-09-05T08:01:12.008Z,16.90
2018-09-05T08:03:39.354Z,17.50
2018-09-05T08:06:06.712Z,19.03
2018-09-05T08:08:34.189Z,19.57
2018-09-05T08:11:01.528Z,18.43
2018-09-05T08:13:28.908Z,17.37
2018-09-05T08:15:56.236Z,17.67
2018-09-05T08:18:23.569Z,17.30
2018-09-05T08:20:50.963Z,14.43
2018-09-05T08:23:18.298Z,14.03
2018-09-05T08:25:45.747Z,14.83
2018-09-05T08:28:13.094Z,14.73
2018-09-05T08:30:40.516Z,12.70
2018-09-05T08:33:07.979Z,13.90
2018-09-05T08:35:35.544Z,15.43
2018-09-05T08:38:02.843Z,15.07
2018-09-05T08:40:30.151Z,13.50
2018-09-05T08:42:57.483Z,12.20
2018-09-05T08:45:25.072Z,12.03
2018-09-05T08:47:52.293Z,11.83
2018-09-05T08:50:19.660Z,9.23
2018-09-05T08:52:47.070Z,8.10
2018-09-05T08:55:14.382Z,10.13
2018-09-05T08:57:41.720Z,8.63
2018-09-05T09:00:09.047Z,7.83
2018-09-05T09:02:36.403Z,8.53
2018-09-05T09:05:03.918Z,10.03
2018-09-05T09:07:31.364Z,8.67
2018-09-05T09:09:58.751Z,10.83
2018-09-05T09:12:26.188Z,8.73
2018-09-05T09:14:53.552Z,8.57
2018-09-05T09:17:20.901Z,6.07
2018-09-05T09:19:48.268Z,7.13
2018-09-05T09:22:15.596Z,7.80
2018-09-05T09:24:42.975Z,8.03
2018-09-05T09:27:10.368Z,7.37
2018-09-05T09:29:37.720Z,13.17
2018-09-05T09:32:05.313Z,15.83
2018-09-05T09:34:32.649Z,10.30
2018-09-05T09:36:59.977Z,11.23
2018-09-05T09:39:27.367Z,11.40
2018-09-05T09:41:54.737Z,10.77
2018-09-05T09:44:22.079Z,9.03
2018-09-05T09:46:49.416Z,8.43
2018-09-05T09:49:16.754Z,9.77
2018-09-05T09:51:44.095Z,10.37
2018-09-05T09:54:11.472Z,9.67
2018-09-05T09:56:38.864Z,8.90
2018-09-05T09:59:06.264Z,10.10
2018-09-05T10:01:39.151Z,9.20
2018-09-05T10:04:12.111Z,10.33
2018-09-05T10:06:39.667Z,9.83
2018-09-05T10:09:13.066Z,10.07
2018-09-05T10:11:46.449Z,10.10
2018-09-05T10:14:19.728Z,9.87
2018-09-05T10:16:52.940Z,11.00
2018-09-05T10:19:20.307Z,12.53
2018-09-05T10:21:47.639Z,11.90
2018-09-05T10:24:14.976Z,12.23
2018-09-05T10:26:42.336Z,12.23
2018-09-05T10:29:09.699Z,12.97
2018-09-05T10:31:37.094Z,11.03
2018-09-05T10:34:05.012Z,13.60
2018-09-05T10:36:32.351Z,12.93
2018-09-05T10:38:59.691Z,12.43
2018-09-05T10:41:27.024Z,13.67
2018-09-05T10:43:54.384Z,16.43
2018-09-05T10:46:21.706Z,14.07
2018-09-05T10:48:49.043Z,13.23
2018-09-05T10:51:16.384Z,15.23
2018-09-05T10:53:43.892Z,14.57
2018-09-05T10:56:11.281Z,16.13
2018-09-05T10:58:38.607Z,16.33
2018-09-05T11:01:05.969Z,15.97
2018-09-05T11:03:33.303Z,17.13
2018-09-05T11:06:00.665Z,19.33
2018-09-05T11:08:28.023Z,16.83
2018-09-05T11:10:55.574Z,15.97
2018-09-05T11:13:22.832Z,15.77
2018-09-05T11:15:50.226Z,14.70
2018-09-05T11:18:17.563Z,14.33
2018-09-05T11:20:44.932Z,19.37
2018-09-05T11:23:12.275Z,12.50
2018-09-05T11:25:39.620Z,13.47
2018-09-05T11:28:06.976Z,13.93
2018-09-05T11:30:34.322Z,13.37
2018-09-05T11:33:01.647Z,12.73
2018-09-05T11:35:28.991Z,13.57
2018-09-05T11:37:56.336Z,14.53
2018-09-05T11:40:23.784Z,13.30
2018-09-05T11:42:51.153Z,14.47
2018-09-05T11:45:18.653Z,16.10
2018-09-05T11:47:46.076Z,15.37
2018-09-05T11:50:13.644Z,13.33
2018-09-05T11:52:41.677Z,14.00
2018-09-05T11:55:09.078Z,13.27
2018-09-05T11:57:36.705Z,16.80
2018-09-05T12:00:04.160Z,15.37
2018-09-05T12:02:31.556Z,17.03
2018-09-05T12:04:59.149Z,18.60
2018-09-05T12:07:26.495Z,17.40
2018-09-05T12:09:54.189Z,17.40
2018-09-05T12:12:21.909Z,15.33
2018-09-05T12:14:49.259Z,14.97
2018-09-05T12:17:16.687Z,16.70
2018-09-05T12:19:44.028Z,15.97
2018-09-05T12:22:11.369Z,14.60
2018-09-05T12:24:38.820Z,15.53
2018-09-05T12:27:06.182Z,15.00
2018-09-05T12:29:33.525Z,14.60
2018-09-05T12:32:00.987Z,15.17
2018-09-05T12:34:28.384Z,15.23
2018-09-05T12:36:55.754Z,15.17
2018-09-05T12:39:23.105Z,15.43
2018-09-05T12:41:50.455Z,15.27
2018-09-05T12:44:17.841Z,15.40
2018-09-05T12:46:45.239Z,14.77
2018-09-05T12:49:12.588Z,14.07
2018-09-05T12:51:39.971Z,14.97
2018-09-05T12:54:08.096Z,14.27
2018-09-05T12:56:35.418Z,14.20
2018-09-05T12:59:02.760Z,14.07
2018-09-05T13:01:30.087Z,15.43
2018-09-05T13:03:57.496Z,15.80
2018-09-05T13:06:24.904Z,16.03
2018-09-05T13:08:52.251Z,16.27
2018-09-05T13:11:19.593Z,15.97
2018-09-05T13:13:47.171Z,15.53
2018-09-05T13:16:16.016Z,14.87
2018-09-05T13:18:43.377Z,16.17
2018-09-05T13:21:10.848Z,25.20
2018-09-05T13:23:38.200Z,15.10
2018-09-05T13:26:05.542Z,15.13
2018-09-05T13:28:32.926Z,15.10
2018-09-05T13:31:00.265Z,16.60
2018-09-05T13:33:27.596Z,16.70
2018-09-05T13:35:55.010Z,15.37
2018-09-05T13:38:22.361Z,15.20
2018-09-05T13:40:49.725Z,15.83
2018-09-05T13:43:17.075Z,15.40
2018-09-05T13:45:44.419Z,15.43
2018-09-05T13:48:11.787Z,15.83
2018-09-05T13:50:39.183Z,13.83
2018-09-05T13:53:06.516Z,14.00
2018-09-05T13:55:33.901Z,14.63
2018-09-05T13:58:01.301Z,15.23
2018-09-05T14:00:28.618Z,16.00
2018-09-05T14:02:56.046Z,14.93
2018-09-05T14:05:23.340Z,13.13
2018-09-05T14:07:50.674Z,14.77
2018-09-05T14:10:18.031Z,14.20
2018-09-05T14:12:46.100Z,13.67
2018-09-05T14:15:13.492Z,14.57
2018-09-05T14:17:41.676Z,15.47
2018-09-05T14:20:09.075Z,14.23
2018-09-05T14:22:36.441Z,12.90
2018-09-05T14:25:03.803Z,13.97
2018-09-05T14:27:31.185Z,13.63
2018-09-05T14:30:00.422Z,13.07
2018-09-05T14:32:27.836Z,13.97
2018-09-05T14:34:55.201Z,13.00
2018-09-05T14:37:22.545Z,11.13
2018-09-05T14:39:49.891Z,11.83
2018-09-05T14:42:17.235Z,12.00
2018-09-05T14:44:44.565Z,10.93
2018-09-05T14:47:11.923Z,10.57
2018-09-05T14:49:39.259Z,10.67
2018-09-05T14:52:06.606Z,9.00
2018-09-05T14:54:33.949Z,9.10
2018-09-05T14:57:01.340Z,9.60
2018-09-05T14:59:28.690Z,8.80
2018-09-05T15:01:56.044Z,9.40
2018-09-05T15:04:23.428Z,9.20
2018-09-05T15:06:50.847Z,7.80
2018-09-05T15:09:18.205Z,7.40
2018-09-05T15:11:45.598Z,7.20
2018-09-05T15:14:12.932Z,7.00
2018-09-05T15:16:40.260Z,7.23
2018-09-05T15:19:07.673Z,7.00
2018-09-05T15:21:35.157Z,11.00
2018-09-05T15:24:02.559Z,11.47
2018-09-05T15:26:29.954Z,11.87
2018-09-05T15:28:57.333Z,14.30
2018-09-05T15:31:24.654Z,13.80
2018-09-05T15:33:51.989Z,12.10
2018-09-05T15:36:19.331Z,10.80
2018-09-05T15:40:06.753Z,12.30
2018-09-05T15:42:34.125Z,12.87
2018-09-05T15:45:01.498Z,12.87
2018-09-05T15:47:28.847Z,12.13
2018-09-05T15:49:56.234Z,13.23
2018-09-05T15:52:23.582Z,13.33
2018-09-05T15:54:50.946Z,11.67
2018-09-05T15:57:18.353Z,11.23
2018-09-05T15:59:45.743Z,13.57
2018-09-05T16:02:13.131Z,11.30
2018-09-05T16:04:40.484Z,14.70
2018-09-05T16:07:08.004Z,16.77
2018-09-05T16:09:35.356Z,12.23
2018-09-05T16:12:02.711Z,15.57
2018-09-05T16:14:30.130Z,13.07
2018-09-05T16:16:57.470Z,15.33
2018-09-05T16:19:24.830Z,16.83
2018-09-05T16:21:52.214Z,15.73
2018-09-05T16:24:19.516Z,16.60
2018-09-05T16:26:46.858Z,15.17
2018-09-05T16:29:14.178Z,15.47
2018-09-05T16:31:41.528Z,17.80
2018-09-05T16:34:09.263Z,15.57
2018-09-05T16:36:36.631Z,18.80
2018-09-05T16:39:07.007Z,17.40
2018-09-05T16:41:34.351Z,21.57
2018-09-05T16:44:01.699Z,18.93
2018-09-05T16:46:29.043Z,19.93
2018-09-05T16:48:56.371Z,19.00
2018-09-05T16:51:23.752Z,16.93
2018-09-05T16:53:51.101Z,19.57
2018-09-05T16:56:18.488Z,19.70
2018-09-05T16:58:45.817Z,20.00
2018-09-05T17:01:14.366Z,19.10
2018-09-05T17:03:41.709Z,23.60
2018-09-05T17:06:09.085Z,20.30
2018-09-05T17:08:36.436Z,22.13
2018-09-05T17:11:03.846Z,22.33
2018-09-05T17:13:31.159Z,25.37
2018-09-05T17:15:58.487Z,23.53
2018-09-05T17:18:25.834Z,22.67
2018-09-05T17:20:53.213Z,24.87
2018-09-05T17:23:20.598Z,26.20
2018-09-05T17:25:47.906Z,25.17
2018-09-05T17:28:15.324Z,21.03
2018-09-05T17:30:42.671Z,25.13
2018-09-05T17:33:10.007Z,21.70
2018-09-05T17:35:37.365Z,20.33
2018-09-05T17:38:04.945Z,24.03
2018-09-05T17:40:32.326Z,24.13
2018-09-05T17:42:59.679Z,22.07
2018-09-05T17:45:27.047Z,22.07
2018-09-05T17:47:54.424Z,22.30
2018-09-05T17:50:21.811Z,23.57
2018-09-05T17:52:49.172Z,21.80
2018-09-05T17:55:16.524Z,22.93
2018-09-05T17:57:43.879Z,24.00
2018-09-05T18:00:11.247Z,20.60
2018-09-05T18:02:38.605Z,21.80
2018-09-05T18:05:05.978Z,21.57
2018-09-05T18:07:33.337Z,25.00
2018-09-05T18:10:00.833Z,21.80
2018-09-05T18:12:28.084Z,23.07
2018-09-05T18:14:55.458Z,20.23
2018-09-05T18:17:22.955Z,19.87
2018-09-05T18:19:50.403Z,18.47
2018-09-05T18:22:17.770Z,21.27
2018-09-05T18:24:45.111Z,20.53
2018-09-05T18:27:12.454Z,22.70
2018-09-05T18:29:39.824Z,19.80
2018-09-05T18:32:07.170Z,22.40
2018-09-05T18:34:34.544Z,23.33
2018-09-05T18:37:01.917Z,19.60
2018-09-05T18:39:29.282Z,18.83
2018-09-05T18:41:56.639Z,21.20
2018-09-05T18:44:24.000Z,20.27
2018-09-05T18:46:51.367Z,22.20
2018-09-05T18:49:18.907Z,24.57
2018-09-05T18:51:46.215Z,22.20
2018-09-05T18:54:13.695Z,25.67
2018-09-05T18:56:41.067Z,23.93
2018-09-05T18:59:08.445Z,32.83
2018-09-05T19:01:35.810Z,22.53
2018-09-05T19:04:03.171Z,27.30
2018-09-05T19:06:30.509Z,30.33
2018-09-05T19:08:57.859Z,25.67
2018-09-05T19:11:25.198Z,27.10
2018-09-05T19:13:52.546Z,24.57
2018-09-05T19:16:19.915Z,24.03
2018-09-05T19:18:47.276Z,23.47
2018-09-05T19:21:14.609Z,23.37
2018-09-05T19:23:41.952Z,24.83
2018-09-05T19:26:09.351Z,25.20
2018-09-05T19:28:36.698Z,20.40
2018-09-05T19:31:04.055Z,25.13
2018-09-05T19:33:31.423Z,21.50
2018-09-05T19:35:58.768Z,24.57
2018-09-05T19:38:26.145Z,24.80
2018-09-05T19:40:53.470Z,21.87
2018-09-05T19:43:20.832Z,18.97
2018-09-05T19:45:48.231Z,18.57
2018-09-05T19:48:15.629Z,19.87
2018-09-05T19:50:42.984Z,20.73
2018-09-05T19:53:10.360Z,15.07
2018-09-05T19:55:37.725Z,17.67
2018-09-05T19:58:05.108Z,17.17
2018-09-05T20:00:32.482Z,16.17
2018-09-05T20:02:59.836Z,13.70
2018-09-05T20:05:27.220Z,13.67
2018-09-05T20:07:54.593Z,13.67
2018-09-05T20:10:22.611Z,13.67
2018-09-05T20:12:50.054Z,10.90
2018-09-05T20:15:17.441Z,11.83
2018-09-05T20:17:44.761Z,11.10
2018-09-05T20:20:12.151Z,13.77
2018-09-05T20:22:39.501Z,11.30
2018-09-05T20:25:06.859Z,11.27
2018-09-05T20:27:34.217Z,11.37
2018-09-05T20:30:01.563Z,15.90
2018-09-05T20:32:28.914Z,12.77
2018-09-05T20:34:56.257Z,13.80
2018-09-05T20:37:23.601Z,13.43
2018-09-05T20:39:50.943Z,11.17
2018-09-05T20:42:18.292Z,15.43
2018-09-05T20:44:45.642Z,12.67
2018-09-05T20:47:13.018Z,17.23
2018-09-05T20:49:40.372Z,16.93
2018-09-05T20:52:07.776Z,15.97
2018-09-05T20:54:35.110Z,17.10
2018-09-05T20:57:02.460Z,16.77
2018-09-05T20:59:29.818Z,16.97
2018-09-05T21:01:57.574Z,16.13
2018-09-05T21:04:24.992Z,12.87
2018-09-05T21:06:52.384Z,21.00
2018-09-05T21:09:19.752Z,18.37
2018-09-05T21:11:47.079Z,15.67
2018-09-05T21:14:14.447Z,14.13
2018-09-05T21:16:41.805Z,14.83
2018-09-05T21:19:09.132Z,14.03
2018-09-05T21:21:36.487Z,14.53
2018-09-05T21:24:04.031Z,12.57
2018-09-05T21:26:31.434Z,15.90
2018-09-05T21:28:58.758Z,11.63
2018-09-05T21:31:26.083Z,12.53
2018-09-05T21:33:53.424Z,12.27
2018-09-05T21:36:20.850Z,13.03
2018-09-05T21:38:48.155Z,12.37
2018-09-05T21:41:15.571Z,11.00
2018-09-05T21:43:42.927Z,10.10
2018-09-05T21:46:10.451Z,12.50
2018-09-05T21:48:37.793Z,14.00
2018-09-05T21:51:05.226Z,13.73
2018-09-05T21:53:32.536Z,12.60
2018-09-05T21:55:59.891Z,15.77
2018-09-05T21:58:27.472Z,12.30
2018-09-05T22:00:54.864Z,11.93
2018-09-05T22:03:22.284Z,13.23
2018-09-05T22:05:49.622Z,11.90
2018-09-05T22:08:16.971Z,13.50
2018-09-05T22:10:44.292Z,14.47
2018-09-05T22:13:11.657Z,14.23
2018-09-05T22:15:44.206Z,11.07
2018-09-05T22:18:11.536Z,11.73
2018-09-05T22:20:38.873Z,13.30
2018-09-05T22:23:06.471Z,21.80
2018-09-05T22:25:33.814Z,15.40
2018-09-05T22:28:01.152Z,15.47
2018-09-05T22:30:28.564Z,12.77
2018-09-05T22:32:55.900Z,14.97
2018-09-05T22:35:23.248Z,14.03
2018-09-05T22:37:50.596Z,12.93
2018-09-05T22:40:18.086Z,15.43
2018-09-05T22:42:56.934Z,16.90
2018-09-05T22:45:35.569Z,13.00
2018-09-05T22:50:26.784Z,17.33
2018-09-05T22:53:13.963Z,16.07
2018-09-05T22:57:03.493Z,14.03
2018-09-05T23:00:46.532Z,16.00
2018-09-05T23:04:27.420Z,14.93
2018-09-05T23:07:04.045Z,15.97
2018-09-05T23:09:42.857Z,16.20
2018-09-05T23:12:21.635Z,17.63
2018-09-05T23:15:00.489Z,17.30
2018-09-05T23:17:40.891Z,19.83
2018-09-05T23:20:24.448Z,18.37
2018-09-05T23:23:03.256Z,18.40
2018-09-05T23:25:30.620Z,24.67
2018-09-05T23:27:57.973Z,20.13
2018-09-05T23:30:25.319Z,19.27
2018-09-05T23:32:54.024Z,21.87
2018-09-05T23:35:21.364Z,17.63
2018-09-05T23:37:48.724Z,19.30
2018-09-05T23:40:16.056Z,24.53
2018-09-05T23:42:43.506Z,24.93
2018-09-05T23:45:10.987Z,20.10
2018-09-05T23:47:38.432Z,27.13
2018-09-05T23:50:06.064Z,27.20
2018-09-05T23:52:33.391Z,23.40
2018-09-05T23:55:00.764Z,24.50
2018-09-05T23:57:28.113Z,31.77
2018-09-05T23:59:55.451Z,33.37
